Time;durP1;ratioP1;P1;durP2;ratioP2;P2;SDS_P1;SDS_P2;PMS_P1;PMS_P2;Temp;Humidity;BMP_temperature;BMP_pressure;BME280_temperature;BME280_humidity;BME280_pressure;Samples;Min_cycle;Max_cycle;Signal;HPM_P1;HPM_P2
2022/06/13 00:00:12;;;;;;;10.43;7.10;;;;;;;16.60;83.52;94937.13;5039073;23;20069;-85
2022/06/13 00:02:38;;;;;;;7.80;7.10;;;;;;;16.58;83.33;94939.19;5005525;28;20030;-86
2022/06/13 00:05:05;;;;;;;8.40;7.05;;;;;;;16.57;83.55;94937.63;4984337;28;20371;-85
2022/06/13 00:07:31;;;;;;;15.50;7.47;;;;;;;16.53;83.81;94947.09;4998678;28;20031;-85
2022/06/13 00:09:56;;;;;;;11.02;7.50;;;;;;;16.50;83.49;94943.16;4983062;28;20076;-85
2022/06/13 00:12:22;;;;;;;14.40;8.15;;;;;;;16.52;83.42;94940.28;4985147;28;20038;-85
2022/06/13 00:14:48;;;;;;;20.27;9.30;;;;;;;16.46;83.09;94942.13;4984856;28;20057;-85
2022/06/13 00:17:13;;;;;;;13.07;9.73;;;;;;;16.43;83.45;94936.59;4998651;23;20045;-85
2022/06/13 00:19:39;;;;;;;17.52;8.95;;;;;;;16.44;83.28;94940.81;5018679;28;20060;-86
2022/06/13 00:22:05;;;;;;;12.93;9.05;;;;;;;16.43;83.14;94939.22;5018599;28;20072;-86
2022/06/13 00:24:31;;;;;;;11.20;7.90;;;;;;;16.40;83.40;94945.78;4998706;28;20109;-85
2022/06/13 00:26:56;;;;;;;11.35;8.30;;;;;;;16.41;83.51;94950.00;5039631;28;20060;-84
2022/06/13 00:29:22;;;;;;;9.88;8.25;;;;;;;16.40;83.68;94953.66;5073097;22;20189;-85
2022/06/13 00:31:48;;;;;;;16.83;8.10;;;;;;;16.43;83.33;94963.66;5026810;28;20033;-84
2022/06/13 00:34:13;;;;;;;9.85;8.18;;;;;;;16.32;83.00;94948.97;5030676;28;20038;-84
2022/06/13 00:36:41;;;;;;;10.63;8.57;;;;;;;16.33;83.18;94960.25;5012692;28;20026;-84
2022/06/13 00:39:07;;;;;;;15.80;9.63;;;;;;;16.34;82.50;94964.44;5013913;28;20101;-83
2022/06/13 00:41:34;;;;;;;14.85;8.15;;;;;;;16.30;82.46;94958.16;5044563;28;20034;-84
2022/06/13 00:43:59;;;;;;;9.18;8.10;;;;;;;16.30;82.52;94952.91;5011097;28;20037;-84
2022/06/13 00:46:28;;;;;;;9.48;7.88;;;;;;;16.27;82.27;94956.84;4991686;28;20025;-84
2022/06/13 00:48:57;;;;;;;9.00;8.13;;;;;;;16.23;82.35;94947.13;5029865;28;20030;-83
2022/06/13 00:51:22;;;;;;;11.95;8.48;;;;;;;16.19;82.50;94959.97;5000187;28;20045;-83
2022/06/13 00:53:48;;;;;;;13.50;8.57;;;;;;;16.18;82.70;94961.03;5030424;28;20871;-84
2022/06/13 00:56:18;;;;;;;9.73;8.23;;;;;;;16.17;83.05;94948.97;4989998;28;20064;-85
2022/06/13 00:58:53;;;;;;;16.00;7.50;;;;;;;16.19;83.31;94945.03;5005146;28;20030;-84
2022/06/13 01:01:19;;;;;;;11.38;8.02;;;;;;;16.23;83.16;94947.91;5007083;28;20038;-84
2022/06/13 01:03:46;;;;;;;12.77;8.18;;;;;;;16.21;83.39;94950.78;5005919;28;20037;-84
2022/06/13 01:06:11;;;;;;;15.23;8.98;;;;;;;16.19;83.08;94947.66;5007741;28;20037;-84
2022/06/13 01:08:37;;;;;;;9.75;7.80;;;;;;;16.17;82.96;94949.75;5023925;28;20061;-84
2022/06/13 01:11:17;;;;;;;11.55;8.45;;;;;;;16.15;82.84;94945.81;4991116;28;20032;-84
2022/06/13 01:14:10;;;;;;;13.55;8.02;;;;;;;16.09;83.23;94942.41;5017598;28;20073;-83
2022/06/13 01:17:05;;;;;;;11.20;7.60;;;;;;;16.08;83.30;94935.56;5051017;28;20033;-83
2022/06/13 01:19:43;;;;;;;9.45;7.35;;;;;;;16.01;83.54;94939.53;5022405;28;20057;-83
2022/06/13 01:22:45;;;;;;;15.95;8.50;;;;;;;15.96;83.39;94937.69;5037670;28;20035;-83
2022/06/13 01:25:30;;;;;;;9.73;7.95;;;;;;;15.95;83.19;94933.50;5001909;28;20064;-85
2022/06/13 01:28:16;;;;;;;8.90;7.93;;;;;;;15.93;83.61;94937.41;5037010;28;20025;-83
2022/06/13 01:31:14;;;;;;;13.20;8.43;;;;;;;15.85;83.37;94936.09;5039001;28;20029;-83
2022/06/13 01:33:48;;;;;;;17.98;8.27;;;;;;;15.85;83.67;94931.66;5034717;28;20079;-83
2022/06/13 01:36:23;;;;;;;13.07;8.13;;;;;;;15.86;83.14;94937.69;5038260;28;20112;-83
2022/06/13 01:39:10;;;;;;;8.43;7.60;;;;;;;15.83;83.30;94931.13;5030879;28;20029;-83
2022/06/13 01:41:38;;;;;;;8.68;7.22;;;;;;;15.81;83.04;94938.47;5054917;28;20037;-83
2022/06/13 01:44:31;;;;;;;13.63;7.85;;;;;;;15.78;83.31;94940.81;5020910;28;20030;-83
2022/06/13 01:47:15;;;;;;;13.77;8.30;;;;;;;15.75;83.47;94941.31;5006246;28;20528;-83
2022/06/13 01:49:59;;;;;;;12.20;8.95;;;;;;;15.76;83.22;94941.06;5018398;28;20405;-82
2022/06/13 01:52:59;;;;;;;11.52;8.18;;;;;;;15.72;83.40;94944.47;5034850;28;20119;-85
2022/06/13 01:55:47;;;;;;;15.45;7.72;;;;;;;15.76;82.64;94945.53;5012050;28;20033;-85
2022/06/13 01:58:38;;;;;;;8.10;7.30;;;;;;;15.81;82.84;94950.78;5020523;28;20029;-84
2022/06/13 02:01:09;;;;;;;14.70;8.13;;;;;;;15.83;82.82;94952.09;5040638;28;20029;-84
2022/06/13 02:03:39;;;;;;;7.70;7.05;;;;;;;15.85;82.30;94946.59;5041334;28;20037;-85
2022/06/13 02:06:09;;;;;;;11.60;7.63;;;;;;;15.86;81.95;94953.41;5024688;28;20022;-85
2022/06/13 02:08:47;;;;;;;7.00;6.38;;;;;;;15.78;81.90;94936.38;5010812;28;20033;-84
2022/06/13 02:13:46;;;;;;;17.02;7.65;;;;;;;15.81;82.22;94956.03;5092544;22;20053;-84
2022/06/13 02:16:18;;;;;;;10.10;7.45;;;;;;;15.79;82.18;94952.91;5030455;28;20087;-84
2022/06/13 02:18:50;;;;;;;8.82;7.95;;;;;;;15.75;82.61;94949.19;5056095;28;20044;-84
2022/06/13 02:21:16;;;;;;;9.60;8.68;;;;;;;15.73;82.66;94951.28;5041383;28;20047;-85
2022/06/13 02:23:49;;;;;;;11.23;8.52;;;;;;;15.69;82.95;94952.88;5058631;28;20032;-86
2022/06/13 02:26:28;;;;;;;12.25;8.70;;;;;;;15.66;82.85;94953.38;5025135;28;20143;-85
2022/06/13 02:28:56;;;;;;;9.43;8.52;;;;;;;15.64;83.19;94955.50;5031456;28;20052;-83
2022/06/13 02:31:33;;;;;;;10.32;9.10;;;;;;;15.63;83.42;94951.28;5022315;28;20515;-85
2022/06/13 02:34:04;;;;;;;10.55;8.98;;;;;;;15.64;83.74;94955.50;5039941;28;20057;-84
2022/06/13 02:36:35;;;;;;;12.18;9.93;;;;;;;15.65;84.03;94957.06;5021584;28;20036;-84
2022/06/13 02:39:23;;;;;;;22.08;10.73;;;;;;;15.66;83.50;94958.63;5054463;28;20578;-83
2022/06/13 02:42:22;;;;;;;21.25;9.93;;;;;;;15.64;82.95;94947.63;5053734;28;20049;-85
2022/06/13 02:44:56;;;;;;;13.73;10.05;;;;;;;15.56;83.24;94954.91;5042885;28;20056;-85
2022/06/13 02:47:29;;;;;;;14.57;9.93;;;;;;;15.60;82.91;94957.81;5043485;28;20106;-84
2022/06/13 02:50:01;;;;;;;19.15;10.65;;;;;;;15.64;83.43;94963.34;5039439;28;20048;-84
2022/06/13 02:52:31;;;;;;;13.65;10.38;;;;;;;15.59;82.94;94943.91;5046127;28;20051;-85
2022/06/13 02:54:59;;;;;;;16.52;10.93;;;;;;;15.61;82.72;94952.31;5039513;28;20033;-84
2022/06/13 02:57:52;;;;;;;16.65;10.43;;;;;;;15.63;82.70;94964.41;5040078;28;20036;-84
2022/06/13 03:00:21;;;;;;;20.98;9.25;;;;;;;15.67;82.64;94970.69;5037792;28;20087;-85
2022/06/13 03:03:11;;;;;;;9.98;7.88;;;;;;;15.74;82.04;94964.13;5060065;28;20040;-85
2022/06/13 03:05:46;;;;;;;14.73;8.23;;;;;;;15.77;82.08;94968.06;5034647;28;20033;-85
2022/06/13 03:08:36;;;;;;;20.98;8.25;;;;;;;15.80;82.24;94970.19;5045883;28;20087;-84
2022/06/13 03:11:11;;;;;;;9.45;7.95;;;;;;;15.83;82.15;94967.06;5046069;28;20114;-84
2022/06/13 03:13:50;;;;;;;8.45;7.65;;;;;;;15.91;81.81;94977.00;5064019;28;20025;-85
2022/06/13 03:16:23;;;;;;;19.40;8.35;;;;;;;15.96;81.19;94973.63;5044096;28;20093;-85
2022/06/13 03:18:53;;;;;;;11.00;8.25;;;;;;;15.93;81.79;94968.88;5053725;28;20027;-85
2022/06/13 03:21:24;;;;;;;15.02;8.90;;;;;;;16.02;81.81;94981.22;5028047;28;20047;-84
2022/06/13 03:23:59;;;;;;;9.32;8.30;;;;;;;16.09;81.71;94975.72;5027075;28;20455;-84
2022/06/13 03:26:36;;;;;;;8.93;8.02;;;;;;;16.19;81.32;94984.38;5005584;28;20026;-85
2022/06/13 03:29:37;;;;;;;13.35;9.18;;;;;;;16.25;81.30;94987.78;5017812;28;20171;-84
2022/06/13 03:32:15;;;;;;;14.55;8.73;;;;;;;16.30;81.23;94994.88;5144598;22;20238;-85
2022/06/13 03:34:43;;;;;;;10.77;8.32;;;;;;;16.40;81.04;95000.13;5047882;28;20037;-84
2022/06/13 03:37:21;;;;;;;13.13;8.55;;;;;;;16.44;80.23;94996.72;5035095;28;20197;-84
2022/06/13 03:39:53;;;;;;;10.52;8.05;;;;;;;16.49;80.17;94994.09;5005711;28;20037;-83
2022/06/13 03:42:28;;;;;;;17.70;8.40;;;;;;;16.65;79.95;95002.75;5004656;28;20057;-84
2022/06/13 03:45:22;;;;;;;10.63;7.72;;;;;;;16.88;79.81;95000.63;5022294;28;20040;-84
2022/06/13 03:48:05;;;;;;;15.43;7.95;;;;;;;17.07;78.39;94999.78;5023926;28;20464;-85
2022/06/13 03:50:39;;;;;;;14.23;8.02;;;;;;;17.26;77.59;95001.84;5022535;28;20038;-84
2022/06/13 03:53:28;;;;;;;15.07;7.63;;;;;;;17.38;76.59;95000.47;5008006;28;20271;-84
2022/06/13 03:56:02;;;;;;;17.98;8.70;;;;;;;17.47;76.32;94998.06;4984489;28;20029;-84
2022/06/13 03:58:36;;;;;;;14.90;9.38;;;;;;;17.60;76.28;94996.69;4985159;28;20098;-84
2022/06/13 04:01:13;;;;;;;15.98;10.02;;;;;;;17.72;75.60;94989.28;4995572;28;20033;-82
2022/06/13 04:03:38;;;;;;;11.05;9.82;;;;;;;18.40;75.35;94994.63;5002465;28;20119;-84
2022/06/13 04:06:25;;;;;;;9.48;6.97;;;;;;;20.14;69.20;94993.44;5003040;28;20481;-82
2022/06/13 04:08:51;;;;;;;8.10;5.65;;;;;;;22.41;60.40;94994.69;5024238;22;20042;-84
2022/06/13 04:11:23;;;;;;;5.75;5.18;;;;;;;24.38;54.45;94990.34;5023081;28;20433;-84
2022/06/13 04:14:24;;;;;;;5.25;4.65;;;;;;;26.15;48.91;94989.81;5014336;28;20085;-84
2022/06/13 04:17:14;;;;;;;6.05;4.88;;;;;;;27.69;45.15;95000.00;5037895;28;20034;-83
2022/06/13 04:19:54;;;;;;;8.45;5.10;;;;;;;29.08;42.06;94981.69;5025223;28;20037;-84
2022/06/13 04:22:44;;;;;;;7.63;5.32;;;;;;;30.44;38.17;94983.59;5025660;28;20038;-84
2022/06/13 04:25:42;;;;;;;5.95;4.53;;;;;;;31.74;36.78;94988.19;5024141;28;20037;-85
2022/06/13 04:28:37;;;;;;;6.78;4.35;;;;;;;33.04;33.10;94976.69;5019569;28;20026;-85
2022/06/13 04:31:03;;;;;;;5.15;3.90;;;;;;;34.01;32.12;94974.34;5022047;28;20030;-85
2022/06/13 04:33:40;;;;;;;5.72;3.95;;;;;;;34.99;30.70;94971.63;5006830;28;20543;-87
2022/06/13 04:36:19;;;;;;;6.95;3.60;;;;;;;35.69;29.19;94959.25;5051608;22;20033;-87
2022/06/13 04:38:48;;;;;;;7.47;3.42;;;;;;;36.58;27.55;94969.06;5028103;28;20081;-85
2022/06/13 04:41:13;;;;;;;10.00;3.97;;;;;;;37.32;26.73;94967.84;5022750;28;20041;-85
2022/06/13 04:43:41;;;;;;;3.22;2.92;;;;;;;38.05;25.75;94970.25;4991202;28;20109;-85
2022/06/13 04:46:20;;;;;;;3.63;3.33;;;;;;;38.65;24.85;94971.53;5031105;28;20026;-85
2022/06/13 04:48:47;;;;;;;5.10;3.17;;;;;;;39.28;24.16;94965.59;5020650;28;20041;-85
2022/06/13 04:51:21;;;;;;;3.28;3.00;;;;;;;39.69;23.53;94968.03;5006741;28;20154;-84
2022/06/13 04:54:12;;;;;;;5.43;3.53;;;;;;;40.07;22.13;94954.16;5033552;28;20037;-85
2022/06/13 04:59:12;;;;;;;2.65;2.45;;;;;;;40.98;21.76;94956.13;5033598;28;20096;-84
2022/06/13 05:01:48;;;;;;;4.47;3.15;;;;;;;41.59;20.76;94955.47;5006433;28;20044;-85
2022/06/13 05:04:18;;;;;;;5.88;2.92;;;;;;;42.14;20.50;94959.13;5000945;28;20100;-85
2022/06/13 05:06:50;;;;;;;4.60;2.55;;;;;;;42.43;19.76;94956.34;4998923;28;20042;-84
2022/06/13 05:09:30;;;;;;;3.45;2.40;;;;;;;42.62;19.54;94957.38;5015149;28;20034;-84
2022/06/13 05:15:02;;;;;;;5.60;2.50;;;;;;;43.12;18.92;94955.88;5138351;22;20087;-85
2022/06/13 05:17:55;;;;;;;4.07;2.67;;;;;;;43.79;18.55;94958.44;4998009;28;20041;-87
2022/06/13 05:21:07;;;;;;;6.32;2.70;;;;;;;44.05;17.81;94958.31;5021394;28;20037;-84
2022/06/13 05:23:54;;;;;;;6.38;2.55;;;;;;;42.94;18.96;94955.69;5014354;28;20117;-84
2022/06/13 05:26:27;;;;;;;6.05;2.90;;;;;;;43.00;19.14;94956.69;5020576;28;20056;-84
2022/06/13 05:28:52;;;;;;;3.03;2.50;;;;;;;43.47;18.28;94959.50;4991235;28;20030;-85
2022/06/13 05:31:19;;;;;;;5.28;2.70;;;;;;;44.27;17.67;94956.38;5038982;28;20040;-85
2022/06/13 05:33:45;;;;;;;6.50;3.03;;;;;;;44.83;17.35;94941.75;4988808;28;20037;-85
2022/06/13 05:36:12;;;;;;;5.35;2.97;;;;;;;45.24;17.33;94950.72;5018841;28;20025;-86
2022/06/13 05:38:52;;;;;;;5.13;2.88;;;;;;;45.01;17.18;94950.06;5019805;28;20037;-84
2022/06/13 05:41:18;;;;;;;2.70;2.50;;;;;;;45.38;16.96;94941.94;5020899;28;20033;-85
2022/06/13 05:43:43;;;;;;;3.60;2.70;;;;;;;44.57;17.73;94944.66;5003169;28;20033;-84
2022/06/13 05:46:11;;;;;;;6.95;3.05;;;;;;;44.51;17.34;94941.00;5042351;28;20041;-84
2022/06/13 05:48:37;;;;;;;2.60;2.40;;;;;;;44.99;16.79;94947.00;5026708;28;20040;-84
2022/06/13 05:51:02;;;;;;;7.05;2.65;;;;;;;45.30;16.51;94943.47;5029619;22;20033;-78
2022/06/13 05:53:28;;;;;;;6.18;2.83;;;;;;;45.49;16.64;94950.50;5038698;28;20068;-80
2022/06/13 05:55:57;;;;;;;5.30;2.40;;;;;;;45.39;16.67;94951.69;5040238;28;20038;-77
2022/06/13 05:58:23;;;;;;;3.65;2.53;;;;;;;45.53;16.79;94951.13;5021516;28;20041;-78
2022/06/13 06:00:52;;;;;;;5.65;2.55;;;;;;;45.69;16.77;94944.59;5001095;28;20034;-79
2022/06/13 06:03:18;;;;;;;4.65;2.50;;;;;;;46.03;16.18;94946.28;5034283;28;20453;-79
2022/06/13 06:05:43;;;;;;;5.38;2.50;;;;;;;46.61;15.56;94942.53;5000365;28;20037;-78
2022/06/13 06:08:21;;;;;;;8.80;2.10;;;;;;;47.02;14.86;94943.00;4997576;28;20033;-78
2022/06/13 06:10:48;;;;;;;5.47;2.13;;;;;;;47.33;14.55;94946.22;5013152;28;20056;-78
2022/06/13 06:13:14;;;;;;;6.32;2.42;;;;;;;47.00;14.91;94948.97;4998361;28;20056;-78
2022/06/13 06:15:40;;;;;;;5.63;2.22;;;;;;;46.95;15.36;94942.13;5015614;28;20029;-80
2022/06/13 06:18:06;;;;;;;4.60;2.20;;;;;;;47.17;14.69;94943.88;5003267;28;20537;-77
2022/06/13 06:20:31;;;;;;;4.25;2.60;;;;;;;47.39;14.12;94941.59;5017539;28;20051;-78
2022/06/13 06:22:57;;;;;;;5.60;2.28;;;;;;;47.66;14.01;94945.41;5034161;28;20045;-77
2022/06/13 06:25:22;;;;;;;3.53;2.20;;;;;;;47.89;14.16;94950.16;5033011;28;20044;-78
2022/06/13 06:27:48;;;;;;;5.35;2.40;;;;;;;48.12;13.98;94946.56;5042801;28;20033;-78
2022/06/13 06:30:15;;;;;;;6.45;1.90;;;;;;;48.28;14.05;94947.38;4997846;28;20040;-78
2022/06/13 06:32:40;;;;;;;7.20;2.17;;;;;;;48.27;13.46;94945.84;5017354;28;20041;-77
2022/06/13 06:35:06;;;;;;;5.47;1.83;;;;;;;48.38;13.73;94948.81;5031078;28;20412;-78
2022/06/13 06:37:32;;;;;;;7.82;2.30;;;;;;;48.23;13.57;94948.03;5014769;28;20029;-78
2022/06/13 06:39:58;;;;;;;3.00;2.35;;;;;;;47.90;14.10;94942.66;5014438;28;20037;-77
2022/06/13 06:42:24;;;;;;;9.75;2.17;;;;;;;47.96;14.22;94947.03;5012597;28;20037;-77
2022/06/13 06:44:49;;;;;;;12.27;2.90;;;;;;;47.91;14.36;94946.94;5031565;28;20112;-78
2022/06/13 06:47:15;;;;;;;6.85;2.35;;;;;;;47.53;14.49;94945.69;4996972;28;20029;-77
2022/06/13 06:49:41;;;;;;;4.20;2.10;;;;;;;47.28;14.18;94938.59;5023641;28;20032;-78
2022/06/13 06:52:07;;;;;;;6.88;2.67;;;;;;;47.55;14.22;94936.94;5023512;28;20034;-78
2022/06/13 07:00:23;;;;;;;6.53;2.50;;;;;;;45.93;15.43;94936.53;5015782;28;22659;-77
2022/06/13 07:02:48;;;;;;;3.50;2.63;;;;;;;45.67;15.80;94939.56;5035231;28;20045;-78
2022/06/13 07:05:14;;;;;;;2.88;2.63;;;;;;;45.22;16.27;94926.47;5004219;28;20033;-78
2022/06/13 07:07:39;;;;;;;5.65;2.50;;;;;;;44.81;16.22;94935.94;5017889;28;20030;-78
2022/06/13 07:10:05;;;;;;;17.17;2.75;;;;;;;44.22;18.12;94941.25;5035113;28;20037;-78
2022/06/13 07:12:31;;;;;;;5.95;2.47;;;;;;;43.23;19.07;94939.13;5033238;28;20505;-78
2022/06/13 07:14:56;;;;;;;7.95;2.80;;;;;;;42.33;19.94;94926.63;5034013;28;20032;-78
2022/06/13 07:17:22;;;;;;;6.38;2.60;;;;;;;41.60;20.14;94929.69;5017677;28;20874;-78
2022/06/13 07:19:48;;;;;;;5.82;2.40;;;;;;;40.93;20.37;94926.66;5000465;28;20025;-78
2022/06/13 07:22:17;;;;;;;3.92;2.60;;;;;;;40.34;21.10;94930.22;5018082;28;20037;-78
2022/06/13 07:24:42;;;;;;;4.78;2.80;;;;;;;39.36;22.14;94928.16;5019051;28;20068;-78
2022/06/13 07:27:08;;;;;;;5.40;2.83;;;;;;;38.57;22.93;94926.59;5034990;28;20033;-78
2022/06/13 07:29:33;;;;;;;9.25;3.20;;;;;;;38.00;23.76;94927.28;5034476;28;20040;-78
2022/06/13 07:32:32;;;;;;;8.18;2.83;;;;;;;37.50;24.18;94924.28;5035878;28;20030;-78
2022/06/13 07:35:01;;;;;;;6.13;3.17;;;;;;;37.11;26.08;94925.38;5016848;28;20050;-77
2022/06/13 07:40:13;;;;;;;8.88;2.88;;;;;;;36.17;27.67;94931.69;5016490;28;20087;-77
2022/06/13 07:42:43;;;;;;;7.45;2.70;;;;;;;34.64;26.97;94931.00;5012414;28;20041;-79
2022/06/13 07:45:14;;;;;;;2.80;2.67;;;;;;;34.01;29.75;94928.47;5012675;28;20068;-77
2022/06/13 07:47:39;;;;;;;2.58;2.40;;;;;;;33.73;28.77;94934.47;5013040;28;20033;-80
2022/06/13 07:50:06;;;;;;;3.63;2.42;;;;;;;33.36;29.07;94934.63;5018570;28;20122;-78
2022/06/13 07:52:35;;;;;;;7.13;2.88;;;;;;;33.18;31.03;94928.28;5034137;28;20054;-80
2022/06/13 07:55:00;;;;;;;6.18;2.83;;;;;;;33.04;31.04;94938.97;5019292;28;20044;-79
2022/06/13 07:57:26;;;;;;;3.67;2.67;;;;;;;32.95;30.44;94925.00;5018894;28;20034;-78
2022/06/13 07:59:52;;;;;;;3.15;2.85;;;;;;;32.81;31.01;94936.44;5022922;28;20033;-79
2022/06/13 08:02:17;;;;;;;3.50;2.83;;;;;;;32.69;31.07;94932.06;5023421;28;20030;-79
2022/06/13 08:04:43;;;;;;;3.67;3.10;;;;;;;32.61;31.41;94918.91;5000396;28;20037;-77
2022/06/13 08:07:10;;;;;;;7.55;3.45;;;;;;;32.48;31.80;94923.78;5034138;28;20080;-79
2022/06/13 08:09:36;;;;;;;6.18;2.63;;;;;;;32.29;32.70;94921.25;4985182;28;20044;-80
2022/06/13 08:12:02;;;;;;;5.28;2.70;;;;;;;32.25;32.99;94921.19;5038229;28;20044;-78
2022/06/13 08:14:28;;;;;;;8.60;3.22;;;;;;;32.03;33.29;94924.75;5024849;28;20037;-79
2022/06/13 08:16:55;;;;;;;3.85;2.90;;;;;;;31.48;33.93;94932.47;5040099;28;20071;-78
2022/06/13 08:19:21;;;;;;;11.88;3.05;;;;;;;31.04;34.24;94925.63;4991219;28;20033;-79
2022/06/13 08:21:46;;;;;;;7.68;3.10;;;;;;;30.95;34.89;94933.16;5040839;28;20072;-79
2022/06/13 08:24:12;;;;;;;8.52;3.28;;;;;;;30.93;34.13;94929.28;5040409;28;20087;-79
2022/06/13 08:26:38;;;;;;;5.85;3.17;;;;;;;30.77;34.85;94929.41;5023641;28;20041;-78
2022/06/13 08:29:05;;;;;;;4.72;3.38;;;;;;;30.72;34.63;94937.72;5005948;28;20030;-79
2022/06/13 08:31:31;;;;;;;3.63;2.30;;;;;;;30.23;33.85;94935.66;5025749;28;20243;-78
2022/06/13 08:33:57;;;;;;;5.07;2.75;;;;;;;29.41;36.07;94947.28;5044352;28;20028;-78
2022/06/13 08:36:23;;;;;;;2.70;2.50;;;;;;;28.95;36.52;94938.13;5011152;28;20033;-79
2022/06/13 08:38:48;;;;;;;2.90;2.60;;;;;;;28.49;37.84;94936.97;5039488;28;20040;-78
2022/06/13 08:41:35;;;;;;;8.05;2.65;;;;;;;28.64;37.34;94939.66;5023966;28;20471;-78
2022/06/13 08:44:09;;;;;;;6.68;2.30;;;;;;;28.97;36.89;94941.28;5025301;28;20090;-79
2022/06/13 08:46:54;;;;;;;4.75;2.30;;;;;;;28.47;37.32;94933.81;4986551;28;20038;-79
2022/06/13 08:49:38;;;;;;;4.15;3.00;;;;;;;28.11;38.55;94933.63;5003317;28;20045;-79
2022/06/13 08:52:32;;;;;;;4.00;2.60;;;;;;;27.66;40.65;94949.09;5039073;28;20044;-79
2022/06/13 08:55:10;;;;;;;10.98;2.90;;;;;;;27.91;40.67;94939.16;5032543;28;20598;-78
2022/06/13 08:57:37;;;;;;;3.28;2.28;;;;;;;28.17;39.96;94933.41;4990387;28;20037;-79
2022/06/13 09:00:09;;;;;;;6.60;2.92;;;;;;;27.70;39.14;94942.00;5047385;28;20072;-79
2022/06/13 09:02:43;;;;;;;4.25;2.60;;;;;;;27.56;39.69;94938.88;4997648;28;20101;-78
2022/06/13 09:05:19;;;;;;;3.72;2.85;;;;;;;27.38;40.42;94933.78;5021628;28;20048;-78
2022/06/13 09:07:51;;;;;;;5.88;3.00;;;;;;;27.35;39.96;94931.78;4988322;28;20500;-78
2022/06/13 09:10:19;;;;;;;6.75;2.33;;;;;;;27.49;39.16;94936.75;5018162;28;20059;-78
2022/06/13 09:13:07;;;;;;;9.73;3.05;;;;;;;27.78;38.88;94927.72;5036419;28;20484;-79
2022/06/13 09:15:45;;;;;;;10.15;2.78;;;;;;;27.93;39.11;94927.00;5037178;28;20052;-78
2022/06/13 09:18:26;;;;;;;8.07;2.70;;;;;;;28.23;38.69;94926.69;5038805;28;20059;-78
2022/06/13 09:20:56;;;;;;;3.70;2.97;;;;;;;28.27;38.26;94935.59;5006859;28;20052;-79
2022/06/13 09:23:27;;;;;;;3.10;2.78;;;;;;;28.16;38.64;94934.53;5040624;28;20084;-78
2022/06/13 09:25:52;;;;;;;8.23;2.75;;;;;;;28.11;38.28;94938.19;5030692;28;20038;-78
2022/06/13 09:28:39;;;;;;;7.55;2.50;;;;;;;27.99;38.70;94927.56;5043827;28;20068;-78
2022/06/13 09:31:30;;;;;;;7.00;2.67;;;;;;;28.05;39.07;94934.22;5040146;28;20022;-79
2022/06/13 09:34:01;;;;;;;7.63;2.83;;;;;;;27.92;38.04;94920.09;5027505;28;20045;-79
2022/06/13 09:36:34;;;;;;;9.85;3.17;;;;;;;27.87;39.05;94912.34;4999451;28;20047;-78
2022/06/13 09:39:05;;;;;;;6.78;2.85;;;;;;;28.00;39.84;94908.50;5048215;28;20043;-77
2022/06/13 09:41:45;;;;;;;5.53;3.10;;;;;;;28.18;39.15;94917.00;5030300;28;20079;-79
2022/06/13 09:44:21;;;;;;;8.50;2.95;;;;;;;27.73;38.73;94911.91;5038842;28;20040;-79
2022/06/13 09:47:12;;;;;;;11.05;3.13;;;;;;;27.16;40.04;94912.84;4990550;28;20061;-79
2022/06/13 09:49:52;;;;;;;7.55;2.92;;;;;;;26.87;41.39;94903.16;5021352;28;20045;-79
2022/06/13 09:52:26;;;;;;;5.35;3.40;;;;;;;26.77;40.75;94917.69;5038817;28;20033;-79
2022/06/13 09:55:24;;;;;;;6.03;3.08;;;;;;;26.52;40.56;94916.88;5039250;28;20032;-78
2022/06/13 09:57:52;;;;;;;7.72;3.25;;;;;;;26.32;41.63;94915.00;5000578;28;20112;-78
2022/06/13 10:00:22;;;;;;;3.25;2.95;;;;;;;26.28;40.75;94906.88;5022049;28;20061;-78
2022/06/13 10:02:49;;;;;;;13.43;3.65;;;;;;;26.40;41.37;94914.19;5037886;28;20038;-79
2022/06/13 10:05:30;;;;;;;8.07;3.33;;;;;;;26.55;40.33;94915.44;5036688;28;20033;-78
2022/06/13 10:08:05;;;;;;;3.50;3.20;;;;;;;26.68;39.77;94910.88;5038221;28;20485;-78
2022/06/13 10:10:49;;;;;;;6.85;2.95;;;;;;;26.77;40.12;94907.03;5039229;28;20103;-79
2022/06/13 10:13:19;;;;;;;4.68;2.97;;;;;;;26.91;41.44;94904.81;5022580;28;20030;-79
2022/06/13 10:16:17;;;;;;;8.95;3.60;;;;;;;27.02;40.22;94902.53;5022903;28;20516;-78
2022/06/13 10:18:55;;;;;;;5.72;3.40;;;;;;;26.93;40.83;94904.47;5023056;28;20053;-79
2022/06/13 10:21:26;;;;;;;3.92;3.63;;;;;;;26.79;41.58;94896.78;5046821;28;20021;-78
2022/06/13 10:24:01;;;;;;;7.65;3.25;;;;;;;26.71;41.70;94895.03;5035605;28;20029;-80
2022/06/13 10:26:59;;;;;;;5.05;3.20;;;;;;;26.33;42.01;94901.34;5051096;28;20067;-79
2022/06/13 10:29:36;;;;;;;3.65;3.25;;;;;;;26.27;43.31;94900.00;5052705;28;20021;-79
2022/06/13 10:32:12;;;;;;;8.18;3.17;;;;;;;26.52;43.36;94892.88;5050083;28;20033;-79
2022/06/13 10:34:50;;;;;;;3.40;3.20;;;;;;;26.65;41.48;94890.22;5001763;28;20103;-76
2022/06/13 10:37:27;;;;;;;9.05;3.22;;;;;;;26.89;41.62;94885.69;5027709;28;20083;-77
2022/06/13 10:39:55;;;;;;;9.88;3.83;;;;;;;26.61;41.22;94885.56;5031727;28;20044;-77
2022/06/13 10:42:23;;;;;;;6.20;3.10;;;;;;;26.24;42.18;94887.34;4981037;28;20041;-81
2022/06/13 10:44:48;;;;;;;7.90;3.67;;;;;;;25.70;43.08;94878.56;5019028;28;20029;-82
2022/06/13 10:47:28;;;;;;;10.50;3.70;;;;;;;25.68;43.42;94870.13;5019819;28;20036;-81
2022/06/13 10:50:10;;;;;;;9.95;3.95;;;;;;;25.80;44.01;94872.06;5005532;28;20041;-81
2022/06/13 10:52:40;;;;;;;6.57;3.45;;;;;;;26.03;43.14;94868.72;5004663;28;20030;-80
2022/06/13 10:55:10;;;;;;;4.22;3.80;;;;;;;26.30;42.52;94871.91;5015678;28;20045;-80
2022/06/13 10:57:58;;;;;;;6.53;3.80;;;;;;;26.45;42.75;94857.19;5019968;28;20045;-79
2022/06/13 11:00:26;;;;;;;4.22;3.42;;;;;;;26.62;42.38;94862.31;5020528;28;20468;-81
2022/06/13 11:02:51;;;;;;;10.48;3.33;;;;;;;26.81;42.55;94862.56;5022464;28;20022;-81
2022/06/13 11:05:23;;;;;;;8.85;4.10;;;;;;;26.78;41.33;94847.22;5023247;28;20039;-80
2022/06/13 11:07:55;;;;;;;5.03;4.15;;;;;;;26.60;40.80;94851.22;5006164;28;20038;-80
2022/06/13 11:10:36;;;;;;;6.30;4.18;;;;;;;26.43;40.97;94846.09;5016396;28;20076;-79
2022/06/13 11:13:03;;;;;;;4.18;3.78;;;;;;;26.50;41.65;94840.97;5005719;28;20037;-79
2022/06/13 11:24:50;;;;;;;6.28;3.53;;;;;;;27.28;41.96;94816.72;5027100;28;20067;-82
2022/06/13 11:27:39;;;;;;;6.43;4.10;;;;;;;26.61;43.05;94820.75;5041713;28;20105;-81
2022/06/13 11:30:27;;;;;;;5.00;4.07;;;;;;;26.39;43.94;94818.53;5027009;28;20043;-81
2022/06/13 11:33:11;;;;;;;10.15;4.35;;;;;;;26.04;43.00;94808.22;5041650;28;20021;-80
2022/06/13 11:35:37;;;;;;;13.68;4.35;;;;;;;25.91;44.01;94804.75;5044650;28;20045;-82
2022/06/13 11:38:50;;;;;;;7.50;4.30;;;;;;;25.84;44.80;94809.03;5031764;28;20056;-82
2022/06/13 11:41:17;;;;;;;9.15;3.95;;;;;;;25.86;44.16;94796.16;5011370;28;20049;-79
2022/06/13 11:43:43;;;;;;;9.60;4.00;;;;;;;25.54;44.43;94800.34;5003856;28;20037;-81
2022/06/13 11:46:14;;;;;;;7.07;4.32;;;;;;;25.51;43.60;94799.09;5041066;28;20037;-81
2022/06/13 11:48:45;;;;;;;11.32;4.70;;;;;;;25.66;44.50;94795.84;5023108;28;20038;-81
2022/06/13 11:51:19;;;;;;;10.77;4.85;;;;;;;25.51;44.52;94793.78;5007104;28;20026;-81
2022/06/13 11:53:45;;;;;;;6.05;4.75;;;;;;;25.47;44.47;94797.44;5023043;28;20112;-81
2022/06/13 11:56:12;;;;;;;6.20;4.32;;;;;;;25.38;44.62;94789.50;5024466;28;20060;-81
2022/06/13 11:58:41;;;;;;;7.38;4.90;;;;;;;25.35;43.86;94798.91;4991159;28;20496;-80
2022/06/13 12:01:31;;;;;;;7.97;4.25;;;;;;;25.58;43.64;94791.38;5041487;28;20029;-81
2022/06/13 12:04:01;;;;;;;5.10;4.00;;;;;;;25.81;44.01;94783.81;5051991;28;20032;-81
2022/06/13 12:06:26;;;;;;;10.43;4.40;;;;;;;25.71;43.74;94782.38;5030638;28;20071;-80
2022/06/13 12:09:03;;;;;;;11.98;4.28;;;;;;;25.84;44.25;94771.72;5031475;28;20052;-79
2022/06/13 12:11:29;;;;;;;11.10;4.30;;;;;;;25.97;43.28;94776.00;5018148;28;20505;-79
2022/06/13 12:13:58;;;;;;;13.45;4.60;;;;;;;25.94;41.94;94760.66;5001112;28;20030;-78
2022/06/13 12:16:39;;;;;;;5.82;3.78;;;;;;;25.77;42.12;94766.16;5034113;28;20037;-78
2022/06/13 12:19:20;;;;;;;6.25;4.95;;;;;;;25.73;42.34;94761.50;5018163;28;20041;-79
2022/06/13 12:21:54;;;;;;;14.52;4.60;;;;;;;25.80;43.51;94762.84;5017039;28;20045;-80
2022/06/13 12:24:34;;;;;;;7.00;4.75;;;;;;;25.63;42.71;94761.88;5038725;28;20073;-81
2022/06/13 12:27:07;;;;;;;9.35;4.63;;;;;;;25.49;42.84;94749.94;5023980;28;20132;-79